createdAt,value
2022-11-20T00:00:59.851Z,13.50
2022-11-20T00:04:13.574Z,13.70
2022-11-20T00:07:36.162Z,13.10
2022-11-20T00:10:43.411Z,15.80
2022-11-20T00:13:55.746Z,13.82
2022-11-20T00:17:05.139Z,18.48
2022-11-20T00:20:18.521Z,15.02
2022-11-20T00:35:22.039Z,12.68
2022-11-20T00:38:34.165Z,16.50
2022-11-20T00:41:43.610Z,14.30
2022-11-20T00:44:53.917Z,12.60
2022-11-20T00:48:02.331Z,12.43
2022-11-20T00:51:12.632Z,13.75
2022-11-20T00:54:19.554Z,12.88
2022-11-20T00:57:26.761Z,16.25
2022-11-20T01:00:36.830Z,12.93
2022-11-20T01:07:08.178Z,16.92
2022-11-20T01:10:18.553Z,11.90
2022-11-20T01:13:39.225Z,14.35
2022-11-20T01:16:51.411Z,14.45
2022-11-20T01:20:00.139Z,14.50
2022-11-20T01:23:11.770Z,15.30
2022-11-20T01:26:20.501Z,17.90
2022-11-20T01:29:28.870Z,13.43
2022-11-20T01:32:37.183Z,14.25
2022-11-20T01:35:47.024Z,16.20
2022-11-20T01:39:00.610Z,16.45
2022-11-20T01:42:25.733Z,13.27
2022-11-20T01:45:58.749Z,15.25
2022-11-20T01:49:28.765Z,16.45
2022-11-20T01:52:43.829Z,16.55
2022-11-20T01:56:00.529Z,16.50
2022-11-20T01:59:36.543Z,14.03
2022-11-20T02:02:43.405Z,18.00
2022-11-20T02:06:12.302Z,22.77
2022-11-20T02:09:18.323Z,15.10
2022-11-20T02:12:46.632Z,17.77
2022-11-20T02:15:54.245Z,14.48
2022-11-20T02:19:07.880Z,15.68
2022-11-20T02:22:18.341Z,15.52
2022-11-20T02:25:31.990Z,15.75
2022-11-20T02:28:41.814Z,16.63
2022-11-20T02:31:50.745Z,19.27
2022-11-20T02:34:58.562Z,21.20
2022-11-20T02:38:08.439Z,22.17
2022-11-20T02:41:16.842Z,25.17
2022-11-20T02:44:31.978Z,19.92
2022-11-20T02:47:39.983Z,17.98
2022-11-20T02:50:45.816Z,17.90
2022-11-20T02:53:59.328Z,18.90
2022-11-20T02:57:13.391Z,17.75
2022-11-20T03:00:32.474Z,18.25
2022-11-20T03:03:49.653Z,18.75
2022-11-20T03:06:56.109Z,15.52
2022-11-20T03:10:09.335Z,16.67
2022-11-20T03:13:35.080Z,17.75
2022-11-20T03:16:43.581Z,15.93
2022-11-20T03:19:54.775Z,15.95
2022-11-20T03:23:00.079Z,16.60
2022-11-20T03:26:12.317Z,17.00
2022-11-20T03:32:51.581Z,20.75
2022-11-20T03:36:01.067Z,14.98
2022-11-20T03:39:06.997Z,15.70
2022-11-20T03:42:32.661Z,19.05
2022-11-20T03:45:46.694Z,18.85
2022-11-20T03:48:54.346Z,15.90
2022-11-20T03:52:02.952Z,16.52
2022-11-20T03:55:09.942Z,14.23
2022-11-20T03:58:16.429Z,18.63
2022-11-20T04:01:28.871Z,17.15
2022-11-20T04:04:37.009Z,18.45
2022-11-20T04:07:47.288Z,16.98
2022-11-20T04:11:00.685Z,19.08
2022-11-20T04:14:07.057Z,14.50
2022-11-20T04:17:18.670Z,19.08
2022-11-20T04:20:28.295Z,17.73
2022-11-20T04:27:08.573Z,17.58
2022-11-20T04:30:17.294Z,15.23
2022-11-20T04:33:38.989Z,16.88
2022-11-20T04:36:48.756Z,20.75
2022-11-20T04:39:54.622Z,21.13
2022-11-20T04:43:05.861Z,17.33
2022-11-20T04:46:14.201Z,21.90
2022-11-20T04:49:23.914Z,19.52
2022-11-20T04:52:32.000Z,21.23
2022-11-20T04:55:42.876Z,18.10
2022-11-20T04:58:52.192Z,24.67
2022-11-20T05:02:00.009Z,21.38
2022-11-20T05:05:12.044Z,23.27
2022-11-20T05:08:31.278Z,23.17
2022-11-20T05:11:40.951Z,18.92
2022-11-20T05:14:47.784Z,19.38
2022-11-20T05:17:54.350Z,22.35
2022-11-20T05:21:15.849Z,27.65
2022-11-20T05:24:24.168Z,24.00
2022-11-20T05:27:48.617Z,18.25
2022-11-20T05:30:56.711Z,22.80
2022-11-20T05:34:06.417Z,18.95
2022-11-20T05:37:16.915Z,17.58
2022-11-20T05:40:24.828Z,15.80
2022-11-20T05:43:39.311Z,26.00
2022-11-20T05:46:45.396Z,25.13
2022-11-20T05:49:52.848Z,18.48
2022-11-20T05:53:03.943Z,23.05
2022-11-20T05:56:12.182Z,20.45
2022-11-20T05:59:24.758Z,19.40
2022-11-20T06:02:34.716Z,18.55
2022-11-20T06:05:44.689Z,21.45
2022-11-20T06:08:56.608Z,18.15
2022-11-20T06:12:14.276Z,15.48
2022-11-20T06:15:20.506Z,18.08
2022-11-20T06:18:31.478Z,20.75
2022-11-20T06:21:39.787Z,18.48
2022-11-20T06:24:51.048Z,22.25
2022-11-20T06:27:57.517Z,19.98
2022-11-20T06:31:10.384Z,18.50
2022-11-20T06:34:15.754Z,19.45
2022-11-20T06:37:35.162Z,17.65
2022-11-20T06:40:45.854Z,20.75
2022-11-20T06:43:55.147Z,19.83
2022-11-20T06:47:07.120Z,17.83
2022-11-20T06:50:15.506Z,18.65
2022-11-20T06:53:22.173Z,18.20
2022-11-20T06:56:35.879Z,18.13
2022-11-20T06:59:42.028Z,16.48
2022-11-20T07:02:49.316Z,16.70
2022-11-20T07:05:58.684Z,19.98
2022-11-20T07:09:12.680Z,19.88
2022-11-20T07:12:24.070Z,20.92
2022-11-20T07:15:33.298Z,19.77
2022-11-20T07:18:44.736Z,19.70
2022-11-20T07:21:55.370Z,18.50
2022-11-20T07:25:08.161Z,19.33
2022-11-20T07:28:16.433Z,20.15
2022-11-20T07:31:30.382Z,20.25
2022-11-20T07:34:41.126Z,18.00
2022-11-20T07:37:53.730Z,18.85
2022-11-20T07:41:05.725Z,21.98
2022-11-20T07:44:15.994Z,20.20
2022-11-20T07:47:22.152Z,18.98
2022-11-20T07:50:27.462Z,18.55
2022-11-20T07:53:34.720Z,21.83
2022-11-20T07:56:53.023Z,22.52
2022-11-20T08:00:07.077Z,20.90
2022-11-20T08:03:14.010Z,19.15
2022-11-20T08:06:23.501Z,20.67
2022-11-20T08:09:33.163Z,19.10
2022-11-20T08:12:54.129Z,19.83
2022-11-20T08:16:08.523Z,18.50
2022-11-20T08:19:17.891Z,19.40
2022-11-20T08:22:28.299Z,19.42
2022-11-20T08:25:35.586Z,19.95
2022-11-20T08:28:43.976Z,21.33
2022-11-20T08:31:57.569Z,21.00
2022-11-20T08:35:17.710Z,19.95
2022-11-20T08:38:29.188Z,21.92
2022-11-20T08:41:37.905Z,22.35
2022-11-20T08:44:58.970Z,22.70
2022-11-20T08:48:20.468Z,23.90
2022-11-20T08:51:30.615Z,21.23
2022-11-20T08:54:40.787Z,23.88
2022-11-20T08:57:50.881Z,23.38
2022-11-20T09:01:02.058Z,22.88
2022-11-20T09:04:16.313Z,19.85
2022-11-20T09:07:22.153Z,23.33
2022-11-20T09:10:32.262Z,22.40
2022-11-20T09:13:38.501Z,22.27
2022-11-20T09:16:47.169Z,21.30
2022-11-20T09:19:57.382Z,24.35
2022-11-20T09:23:13.168Z,21.05
2022-11-20T09:26:19.380Z,24.33
2022-11-20T09:29:28.951Z,23.05
2022-11-20T09:36:04.844Z,23.23
2022-11-20T09:39:11.088Z,24.23
2022-11-20T09:42:26.986Z,25.98
2022-11-20T09:45:42.070Z,20.52
2022-11-20T09:49:01.631Z,32.50
2022-11-20T09:52:18.802Z,24.52
2022-11-20T09:55:28.789Z,23.38
2022-11-20T09:58:46.319Z,21.80
2022-11-20T10:01:58.638Z,25.17
2022-11-20T10:05:08.190Z,21.25
2022-11-20T10:08:51.574Z,23.58
2022-11-20T10:12:09.134Z,21.02
2022-11-20T10:15:23.293Z,21.70
2022-11-20T10:22:18.447Z,21.75
2022-11-20T10:25:53.192Z,22.63
2022-11-20T10:29:11.964Z,24.77
2022-11-20T10:32:42.602Z,24.67
2022-11-20T10:35:54.752Z,20.00
2022-11-20T10:39:02.755Z,25.05
2022-11-20T10:42:13.117Z,24.88
2022-11-20T10:45:28.470Z,26.90
2022-11-20T10:48:36.566Z,27.52
2022-11-20T10:51:44.558Z,27.95
2022-11-20T10:54:56.172Z,22.77
2022-11-20T10:58:06.066Z,24.65
2022-11-20T11:01:19.674Z,22.65
2022-11-20T11:04:35.181Z,26.33
2022-11-20T11:07:47.920Z,24.00
2022-11-20T11:10:55.934Z,26.88
2022-11-20T11:14:11.264Z,25.83
2022-11-20T11:17:31.626Z,24.23
2022-11-20T11:20:40.566Z,23.90
2022-11-20T11:23:47.596Z,25.90
2022-11-20T11:27:07.017Z,24.85
2022-11-20T11:30:19.228Z,23.25
2022-11-20T11:33:27.888Z,23.17
2022-11-20T11:36:36.978Z,22.88
2022-11-20T11:40:22.403Z,22.88
2022-11-20T11:43:37.967Z,24.23
2022-11-20T11:46:52.153Z,26.88
2022-11-20T11:50:07.569Z,24.38
2022-11-20T11:53:19.386Z,27.40
2022-11-20T11:56:24.938Z,30.08
2022-11-20T11:59:31.223Z,23.48
2022-11-20T12:02:42.839Z,25.67
2022-11-20T12:05:50.037Z,25.73
2022-11-20T12:09:00.114Z,25.65
2022-11-20T12:12:09.835Z,24.90
2022-11-20T12:15:16.038Z,28.25
2022-11-20T12:18:40.038Z,24.15
2022-11-20T12:21:55.144Z,22.92
2022-11-20T12:25:08.894Z,24.95
2022-11-20T12:28:30.782Z,26.17
2022-11-20T12:31:48.721Z,24.92
2022-11-20T12:35:08.586Z,27.98
2022-11-20T12:38:31.748Z,24.95
2022-11-20T12:42:01.524Z,26.95
2022-11-20T12:45:18.951Z,31.88
2022-11-20T12:48:44.928Z,28.25
2022-11-20T12:52:01.925Z,28.80
2022-11-20T12:55:13.503Z,26.70
2022-11-20T12:58:27.828Z,27.27
2022-11-20T13:01:45.320Z,30.38
2022-11-20T13:05:01.653Z,30.60
2022-11-20T13:08:10.391Z,25.75
2022-11-20T13:11:20.863Z,27.48
2022-11-20T13:14:40.085Z,26.83
2022-11-20T13:17:51.378Z,30.50
2022-11-20T13:20:56.636Z,31.23
2022-11-20T13:24:12.944Z,29.38
2022-11-20T13:27:32.104Z,27.65
2022-11-20T13:30:53.050Z,29.05
2022-11-20T13:34:00.594Z,33.53
2022-11-20T13:37:07.194Z,34.08
2022-11-20T13:40:18.423Z,28.27
2022-11-20T13:43:29.945Z,29.50
2022-11-20T13:46:45.925Z,37.58
2022-11-20T13:49:56.401Z,34.45
2022-11-20T13:53:11.102Z,35.17
2022-11-20T13:56:29.024Z,36.03
2022-11-20T13:59:41.333Z,31.52
2022-11-20T14:02:54.898Z,33.85
2022-11-20T14:06:06.850Z,32.00
2022-11-20T14:12:23.433Z,35.58
2022-11-20T14:15:34.522Z,31.98
2022-11-20T14:18:49.365Z,31.88
2022-11-20T14:22:03.779Z,36.33
2022-11-20T14:25:10.385Z,27.95
2022-11-20T14:28:25.114Z,31.35
2022-11-20T14:31:33.312Z,36.72
2022-11-20T14:34:44.767Z,33.13
2022-11-20T14:37:53.570Z,35.10
2022-11-20T14:41:09.317Z,31.98
2022-11-20T14:44:18.313Z,35.03
2022-11-20T14:47:33.604Z,33.58
2022-11-20T14:50:49.908Z,35.58
2022-11-20T14:53:56.454Z,34.80
2022-11-20T14:57:05.293Z,34.22
2022-11-20T15:00:22.952Z,34.17
2022-11-20T15:03:34.682Z,35.60
2022-11-20T15:06:53.857Z,32.70
2022-11-20T15:10:05.823Z,33.63
2022-11-20T15:13:22.776Z,34.70
2022-11-20T15:16:30.251Z,31.77
2022-11-20T15:19:39.177Z,34.25
2022-11-20T15:22:48.968Z,38.65
2022-11-20T15:26:00.565Z,34.05
2022-11-20T15:29:07.166Z,33.85
2022-11-20T15:32:13.774Z,31.40
2022-11-20T15:35:22.451Z,30.58
2022-11-20T15:38:36.510Z,31.88
2022-11-20T15:41:41.835Z,31.98
2022-11-20T15:44:49.824Z,31.85
2022-11-20T15:47:55.877Z,33.60
2022-11-20T15:51:06.049Z,39.33
2022-11-20T15:54:19.056Z,30.67
2022-11-20T15:57:26.545Z,32.37
2022-11-20T16:00:32.085Z,37.88
2022-11-20T16:03:40.167Z,33.60
2022-11-20T16:06:50.190Z,32.30
2022-11-20T16:10:01.783Z,33.63
2022-11-20T16:13:19.217Z,30.92
2022-11-20T16:16:27.144Z,36.13
2022-11-20T16:19:37.762Z,33.35
2022-11-20T16:22:43.386Z,32.78
2022-11-20T16:25:52.855Z,34.47
2022-11-20T16:28:59.355Z,33.42
2022-11-20T16:32:05.388Z,32.42
2022-11-20T16:35:12.039Z,29.77
2022-11-20T16:38:19.841Z,29.70
2022-11-20T16:41:37.010Z,29.65
2022-11-20T16:44:51.055Z,27.80
2022-11-20T16:47:57.485Z,26.70
2022-11-20T16:51:05.983Z,26.77
2022-11-20T16:54:15.177Z,24.67
2022-11-20T16:57:31.586Z,21.67
2022-11-20T17:00:51.158Z,20.75
2022-11-20T17:03:57.844Z,24.02
2022-11-20T17:07:08.135Z,22.73
2022-11-20T17:10:16.451Z,22.83
2022-11-20T17:13:24.730Z,19.02
2022-11-20T17:16:41.470Z,16.60
2022-11-20T17:19:47.688Z,23.05
2022-11-20T17:22:54.466Z,22.35
2022-11-20T17:26:07.127Z,23.20
2022-11-20T17:29:17.708Z,19.75
2022-11-20T17:32:27.991Z,24.35
2022-11-20T17:35:43.822Z,18.25
2022-11-20T17:38:49.809Z,18.15
2022-11-20T17:42:09.125Z,18.33
2022-11-20T17:45:18.074Z,19.65
2022-11-20T17:48:24.988Z,22.23
2022-11-20T17:51:31.123Z,22.20
2022-11-20T17:54:38.196Z,20.63
2022-11-20T17:57:57.339Z,19.95
2022-11-20T18:01:10.413Z,17.95
2022-11-20T18:04:17.185Z,17.90
2022-11-20T18:07:22.470Z,19.33
2022-11-20T18:10:29.433Z,18.73
2022-11-20T18:13:48.879Z,22.65
2022-11-20T18:17:03.272Z,23.77
2022-11-20T18:23:37.030Z,24.65
2022-11-20T18:26:44.533Z,25.00
2022-11-20T18:29:54.384Z,20.90
2022-11-20T18:33:02.754Z,23.05
2022-11-20T18:36:14.771Z,20.90
2022-11-20T18:39:20.664Z,23.33
2022-11-20T18:42:39.165Z,22.67
2022-11-20T18:45:46.891Z,24.20
2022-11-20T18:48:55.693Z,15.68
2022-11-20T18:52:04.330Z,25.08
2022-11-20T18:55:12.131Z,20.05
2022-11-20T18:58:21.343Z,22.90
2022-11-20T19:01:26.968Z,15.43
2022-11-20T19:04:35.028Z,22.95
2022-11-20T19:07:43.536Z,29.35
2022-11-20T19:10:51.202Z,25.27
2022-11-20T19:14:02.896Z,24.67
2022-11-20T19:17:09.142Z,31.38
2022-11-20T19:20:32.242Z,10.27
2022-11-20T19:23:38.924Z,25.77
2022-11-20T19:26:45.389Z,30.77
2022-11-20T19:29:50.688Z,22.48
2022-11-20T19:33:00.192Z,30.50
2022-11-20T19:36:14.345Z,26.13
2022-11-20T19:39:23.910Z,34.45
2022-11-20T19:42:31.611Z,39.13
2022-11-20T19:45:37.079Z,29.00
2022-11-20T19:48:42.344Z,30.55
2022-11-20T19:51:56.609Z,26.75
2022-11-20T19:55:04.233Z,31.50
2022-11-20T19:58:09.936Z,33.38
2022-11-20T20:01:17.000Z,32.50
2022-11-20T20:04:22.422Z,30.70
2022-11-20T20:07:33.669Z,24.85
2022-11-20T20:10:43.701Z,30.73
2022-11-20T20:13:49.386Z,28.70
2022-11-20T20:16:59.000Z,29.92
2022-11-20T20:20:04.309Z,27.95
2022-11-20T20:23:12.911Z,32.55
2022-11-20T20:26:18.011Z,25.73
2022-11-20T20:29:24.857Z,34.92
2022-11-20T20:32:35.910Z,29.00
2022-11-20T20:35:49.212Z,30.23
2022-11-20T20:42:07.753Z,27.48
2022-11-20T20:45:14.185Z,26.00
2022-11-20T20:48:20.988Z,29.35
2022-11-20T20:51:27.074Z,21.50
2022-11-20T20:54:36.253Z,34.92
2022-11-20T20:57:47.290Z,28.95
2022-11-20T21:00:56.925Z,27.05
2022-11-20T21:04:05.674Z,30.02
2022-11-20T21:07:14.370Z,23.00
2022-11-20T21:10:23.731Z,24.35
2022-11-20T21:13:34.521Z,27.38
2022-11-20T21:16:44.218Z,32.28
2022-11-20T21:19:50.006Z,33.67
2022-11-20T21:22:54.410Z,25.83
2022-11-20T21:26:03.194Z,24.73
2022-11-20T21:29:19.291Z,26.27
2022-11-20T21:32:27.356Z,21.30
2022-11-20T21:35:32.679Z,20.30
2022-11-20T21:38:42.763Z,19.48
2022-11-20T21:42:03.220Z,17.63
2022-11-20T21:45:14.870Z,19.55
2022-11-20T21:48:22.485Z,16.08
2022-11-20T21:51:30.445Z,14.85
2022-11-20T21:54:37.363Z,10.40
2022-11-20T21:57:45.217Z,12.00
2022-11-20T22:00:54.353Z,9.40
2022-11-20T22:04:02.671Z,10.88
2022-11-20T22:07:19.722Z,12.55
2022-11-20T22:10:28.074Z,11.48
2022-11-20T22:13:45.666Z,13.32
2022-11-20T22:16:58.122Z,8.10
2022-11-20T22:20:03.332Z,13.10
2022-11-20T22:23:12.909Z,6.57
2022-11-20T22:26:20.455Z,8.48
2022-11-20T22:29:25.884Z,9.20
2022-11-20T22:32:34.936Z,12.27
2022-11-20T22:35:52.190Z,8.23
2022-11-20T22:38:58.726Z,9.90
2022-11-20T22:42:08.162Z,7.20
2022-11-20T22:45:14.217Z,9.00
2022-11-20T22:48:34.555Z,7.32
2022-11-20T22:51:50.702Z,7.60
2022-11-20T22:55:02.498Z,8.13
2022-11-20T22:58:10.294Z,6.80
2022-11-20T23:01:20.914Z,7.50
2022-11-20T23:04:35.965Z,7.13
2022-11-20T23:07:46.085Z,7.38
2022-11-20T23:10:55.875Z,7.75
2022-11-20T23:14:03.642Z,7.60
2022-11-20T23:17:11.462Z,8.02
2022-11-20T23:20:22.290Z,8.63
2022-11-20T23:23:29.591Z,4.80
2022-11-20T23:26:37.098Z,6.88
2022-11-20T23:29:43.241Z,7.25
2022-11-20T23:32:49.063Z,6.28
2022-11-20T23:36:00.888Z,7.93
2022-11-20T23:39:09.133Z,8.85
2022-11-20T23:42:20.366Z,6.78
2022-11-20T23:45:29.564Z,10.00
2022-11-20T23:48:39.969Z,7.68
2022-11-20T23:51:52.574Z,10.35
2022-11-20T23:54:58.794Z,9.48
2022-11-20T23:58:05.275Z,8.85
